Time;durP1;ratioP1;P1;durP2;ratioP2;P2;SDS_P1;SDS_P2;PMS_P1;PMS_P2;Temp;Humidity;BMP_temperature;BMP_pressure;BME280_temperature;BME280_humidity;BME280_pressure;Samples;Min_cycle;Max_cycle;Signal;HPM_P1;HPM_P2
2023/06/01 00:03:11;;;;;;;9.50;3.80;;;;;;;8.02;64.45;99988.46;220678;1256;141457;-73
2023/06/01 00:08:15;;;;;;;6.40;3.80;;;;;;;8.01;64.89;99986.14;219801;1256;138942;-74
2023/06/01 00:13:19;;;;;;;7.20;3.50;;;;;;;8.01;64.68;99983.04;220447;1256;139736;-76
2023/06/01 00:18:30;;;;;;;11.10;4.10;;;;;;;8.03;65.03;99980.30;220518;1256;142141;-76
2023/06/01 00:23:34;;;;;;;3.80;3.00;;;;;;;8.03;65.02;99976.21;219609;1257;140132;-69
2023/06/01 00:28:36;;;;;;;5.70;4.50;;;;;;;7.96;65.04;99971.59;220311;1257;139142;-76
2023/06/01 00:33:40;;;;;;;4.10;2.80;;;;;;;7.94;65.23;99974.39;219289;1257;139421;-72
2023/06/01 00:38:44;;;;;;;4.30;3.00;;;;;;;7.87;65.33;99973.69;217960;1259;138997;-72
2023/06/01 00:43:48;;;;;;;5.10;3.40;;;;;;;7.82;65.67;99975.79;217692;1256;138526;-71
2023/06/01 00:48:51;;;;;;;5.10;3.90;;;;;;;7.76;65.74;99970.91;218791;1257;139506;-70
2023/06/01 00:53:55;;;;;;;4.20;3.50;;;;;;;7.71;65.67;99970.44;218115;1257;140233;-70
2023/06/01 00:58:59;;;;;;;10.30;4.00;;;;;;;7.63;66.00;99965.29;218067;1256;139226;-70
2023/06/01 01:04:03;;;;;;;4.10;3.10;;;;;;;7.60;65.93;99963.48;218347;1256;139038;-73
2023/06/01 01:09:11;;;;;;;6.90;5.20;;;;;;;7.54;66.19;99961.70;217903;1256;138814;-74
2023/06/01 01:14:25;;;;;;;10.70;4.90;;;;;;;7.46;66.33;99958.93;218558;1259;138711;-76
2023/06/01 01:19:42;;;;;;;7.30;4.50;;;;;;;7.43;66.65;99951.68;217820;1259;138898;-75
2023/06/01 01:25:10;;;;;;;7.00;3.30;;;;;;;7.41;66.76;99946.25;217898;1257;141851;-75
2023/06/01 01:30:16;;;;;;;6.70;4.20;;;;;;;7.34;67.18;99943.88;218567;1257;139800;-80
2023/06/01 01:35:25;;;;;;;7.30;4.70;;;;;;;7.26;66.87;99940.40;217950;1259;139216;-80
2023/06/01 01:40:28;;;;;;;13.40;6.60;;;;;;;7.22;67.52;99938.61;218155;1257;139796;-86
2023/06/01 01:45:32;;;;;;;8.10;4.80;;;;;;;7.21;67.74;99934.29;218726;1257;140520;-85
2023/06/01 01:50:50;;;;;;;7.40;6.00;;;;;;;7.20;68.02;99925.32;218090;1257;140888;-84
2023/06/01 01:55:56;;;;;;;11.00;7.90;;;;;;;7.20;67.99;99924.54;219009;1256;139781;-81
2023/06/01 02:01:02;;;;;;;7.40;4.70;;;;;;;7.18;68.05;99929.11;218827;1257;139473;-82
2023/06/01 02:06:06;;;;;;;12.90;5.80;;;;;;;7.12;67.88;99924.19;220140;1256;139504;-86
2023/06/01 02:11:09;;;;;;;12.00;6.50;;;;;;;7.13;68.38;99923.73;219677;1257;139435;-86
2023/06/01 02:16:12;;;;;;;8.50;5.70;;;;;;;7.17;67.95;99914.42;218041;1260;150554;-75
2023/06/01 02:21:16;;;;;;;12.70;6.30;;;;;;;7.12;67.97;99915.46;219393;1257;140142;-74
2023/06/01 02:26:19;;;;;;;9.10;6.90;;;;;;;7.10;67.86;99920.23;219671;1257;139862;-82
2023/06/01 02:31:23;;;;;;;7.50;5.60;;;;;;;7.14;68.33;99921.86;219003;1256;140345;-72
2023/06/01 02:36:31;;;;;;;10.20;5.70;;;;;;;7.15;68.70;99919.70;218156;1257;140040;-72
2023/06/01 02:41:35;;;;;;;6.90;5.10;;;;;;;7.14;68.92;99916.23;218651;1257;139793;-74
2023/06/01 02:46:38;;;;;;;12.00;7.60;;;;;;;7.18;68.24;99914.48;218298;1257;139618;-73
2023/06/01 02:51:41;;;;;;;7.10;5.90;;;;;;;7.21;68.92;99904.43;218575;1259;141220;-72
2023/06/01 02:56:44;;;;;;;6.90;5.10;;;;;;;7.22;69.02;99902.43;219114;1257;140206;-72
2023/06/01 03:01:47;;;;;;;6.50;4.30;;;;;;;7.20;69.14;99899.09;217834;1257;139506;-71
2023/06/01 03:06:52;;;;;;;5.10;4.30;;;;;;;7.20;69.43;99903.25;218685;1256;139021;-72
2023/06/01 03:11:55;;;;;;;9.80;4.80;;;;;;;7.24;69.47;99904.10;217868;1259;138882;-70
2023/06/01 03:16:58;;;;;;;7.20;3.80;;;;;;;7.36;69.82;99904.36;218674;1256;139267;-68
2023/06/01 03:22:01;;;;;;;14.60;6.20;;;;;;;7.48;69.57;99907.42;217738;1260;139754;-72
2023/06/01 03:27:05;;;;;;;7.80;5.20;;;;;;;7.57;69.82;99898.42;217754;1257;140527;-69
2023/06/01 03:32:08;;;;;;;11.50;6.10;;;;;;;7.67;69.90;99896.69;218199;1257;140186;-72
2023/06/01 03:37:12;;;;;;;8.80;5.60;;;;;;;7.80;70.18;99889.08;217769;1257;140100;-71
2023/06/01 03:42:14;;;;;;;8.40;5.50;;;;;;;7.98;70.62;99885.61;219167;1257;140531;-74
2023/06/01 03:47:17;;;;;;;6.20;5.30;;;;;;;8.21;70.44;99883.20;217774;1260;139550;-74
2023/06/01 03:52:20;;;;;;;5.60;4.10;;;;;;;8.48;70.49;99875.88;218317;1257;140324;-77
2023/06/01 03:57:23;;;;;;;6.80;4.50;;;;;;;8.83;70.56;99872.27;217792;1257;140706;-77
2023/06/01 04:02:28;;;;;;;13.40;6.70;;;;;;;9.19;70.71;99869.98;217770;1257;140408;-77
2023/06/01 04:07:34;;;;;;;9.50;6.10;;;;;;;9.61;70.75;99872.39;220149;1257;141313;-76
2023/06/01 04:12:37;;;;;;;10.40;6.00;;;;;;;10.06;70.98;99868.66;220454;1257;141532;-79
2023/06/01 04:17:42;;;;;;;9.50;7.50;;;;;;;10.60;70.70;99862.41;220449;1256;140235;-76
2023/06/01 04:22:47;;;;;;;10.10;5.30;;;;;;;12.07;69.30;99854.71;219236;1257;139858;-75
2023/06/01 04:27:51;;;;;;;9.20;6.60;;;;;;;13.90;67.16;99849.05;218215;1259;140428;-75
2023/06/01 04:32:54;;;;;;;11.70;6.40;;;;;;;14.12;66.11;99841.27;218623;1257;140007;-72
2023/06/01 04:37:58;;;;;;;6.50;4.90;;;;;;;14.75;64.81;99841.81;218996;1259;139662;-73
2023/06/01 04:43:02;;;;;;;11.30;5.80;;;;;;;15.93;63.81;99835.06;217836;1257;140101;-72
2023/06/01 04:48:08;;;;;;;7.00;5.10;;;;;;;16.87;62.09;99838.89;218560;1260;139623;-71
2023/06/01 04:53:12;;;;;;;5.60;4.90;;;;;;;17.85;60.26;99838.20;218470;1257;139033;-71
2023/06/01 04:58:17;;;;;;;8.60;4.30;;;;;;;17.80;58.95;99837.04;217763;1257;139240;-71
2023/06/01 05:03:21;;;;;;;9.10;4.90;;;;;;;18.00;57.31;99835.85;218099;1257;140524;-71
2023/06/01 05:08:23;;;;;;;4.80;4.40;;;;;;;20.23;54.70;99828.13;217719;1260;140312;-71
2023/06/01 05:13:26;;;;;;;6.50;5.60;;;;;;;22.48;51.98;99825.65;218008;1257;230372;-70
2023/06/01 05:18:29;;;;;;;7.70;5.20;;;;;;;25.51;48.27;99821.03;218498;1257;139390;-68
2023/06/01 05:23:33;;;;;;;4.90;4.50;;;;;;;27.83;43.83;99818.39;217851;1260;138980;-78
2023/06/01 05:28:38;;;;;;;7.30;5.20;;;;;;;29.75;40.53;99816.89;218337;1257;138597;-75
2023/06/01 05:33:44;;;;;;;5.10;3.40;;;;;;;31.76;38.16;99819.27;219077;1256;139090;-68
2023/06/01 05:38:47;;;;;;;5.40;3.00;;;;;;;33.29;35.21;99816.32;218334;1257;140909;-71
2023/06/01 05:43:51;;;;;;;5.50;4.30;;;;;;;34.57;33.46;99816.44;217861;1257;140091;-73
2023/06/01 05:48:55;;;;;;;3.70;3.20;;;;;;;35.55;31.24;99818.57;220073;1256;140779;-72
2023/06/01 05:53:58;;;;;;;;;;;;;;;36.37;29.54;99816.05;218804;1260;139866;-69
2023/06/01 05:59:01;;;;;;;4.00;3.10;;;;;;;36.86;28.16;99819.12;219856;1257;125724;-70
2023/06/01 06:04:06;;;;;;;5.90;3.70;;;;;;;37.61;26.99;99813.36;220620;1257;139222;-72
2023/06/01 06:09:13;;;;;;;8.00;4.40;;;;;;;38.40;26.12;99812.17;218740;1262;139296;-70
2023/06/01 06:14:16;;;;;;;4.90;2.80;;;;;;;39.28;25.25;99807.73;220378;1260;140559;-74
2023/06/01 06:19:19;;;;;;;3.50;2.50;;;;;;;39.98;23.93;99807.60;219180;1258;138517;-74
2023/06/01 06:24:22;;;;;;;5.60;2.40;;;;;;;39.81;22.79;99804.23;218111;1260;138937;-71
2023/06/01 06:29:25;;;;;;;1.70;1.60;;;;;;;39.06;22.52;99800.00;218989;1260;140331;-72
2023/06/01 06:34:34;;;;;;;3.40;1.90;;;;;;;39.36;22.49;99797.79;218514;1260;139676;-73
2023/06/01 06:39:48;;;;;;;5.20;2.10;;;;;;;39.29;21.96;99796.41;220555;1257;140146;-73
2023/06/01 06:44:51;;;;;;;3.10;2.10;;;;;;;39.33;22.00;99795.45;219030;1260;141325;-70
2023/06/01 06:49:57;;;;;;;4.60;2.30;;;;;;;39.62;21.58;99794.48;217816;1257;139187;-75
2023/06/01 06:55:00;;;;;;;4.00;1.70;;;;;;;40.09;21.55;99791.98;218767;1260;139183;-72
2023/06/01 07:00:04;;;;;;;3.60;2.40;;;;;;;40.31;20.74;99791.88;218380;1260;138748;-74
2023/06/01 07:05:10;;;;;;;8.40;1.90;;;;;;;40.37;20.24;99791.09;217672;1258;139991;-71
2023/06/01 07:10:13;;;;;;;3.20;1.30;;;;;;;40.21;19.76;99786.50;218999;1257;139685;-70
2023/06/01 07:15:16;;;;;;;1.90;1.70;;;;;;;39.70;19.51;99780.07;217954;1257;139181;-70
2023/06/01 07:20:20;;;;;;;2.50;1.50;;;;;;;39.66;20.30;99775.20;218183;1257;139925;-73
2023/06/01 07:25:23;;;;;;;2.00;1.90;;;;;;;38.68;20.78;99770.33;217717;1260;140214;-70
2023/06/01 07:30:26;;;;;;;2.90;1.90;;;;;;;37.96;21.40;99769.59;217958;1260;139699;-69
2023/06/01 07:35:29;;;;;;;2.30;2.20;;;;;;;37.09;21.94;99765.66;217796;1257;139411;-69
2023/06/01 07:40:32;;;;;;;1.40;1.20;;;;;;;36.67;22.34;99756.42;217982;1257;139978;-70
2023/06/01 07:45:37;;;;;;;2.00;1.80;;;;;;;36.00;22.35;99755.39;219042;1257;139349;-73
2023/06/01 07:50:40;;;;;;;3.70;1.30;;;;;;;35.35;22.82;99751.46;219256;1257;140901;-71
2023/06/01 07:55:48;;;;;;;2.60;1.60;;;;;;;34.54;22.87;99748.10;218415;1259;140011;-69
2023/06/01 08:00:52;;;;;;;5.60;2.10;;;;;;;33.67;23.45;99746.11;218551;1256;139249;-73
2023/06/01 08:05:57;;;;;;;2.10;1.90;;;;;;;33.18;23.98;99740.66;218962;1257;138960;-72
2023/06/01 08:11:02;;;;;;;2.90;2.40;;;;;;;32.77;24.87;99736.52;219939;1257;232456;-69
2023/06/01 08:16:05;;;;;;;;;;;;;;;32.43;24.90;99732.14;220698;1257;140470;-68
2023/06/01 08:21:09;;;;;;;2.40;2.00;;;;;;;31.90;25.08;99725.45;220261;1257;127487;-72
2023/06/01 08:26:12;;;;;;;8.20;2.40;;;;;;;31.31;25.26;99726.02;219319;1257;140032;-72
2023/06/01 08:31:15;;;;;;;2.10;1.90;;;;;;;30.92;25.72;99721.85;218036;1257;139363;-72
2023/06/01 08:36:20;;;;;;;3.10;2.40;;;;;;;30.92;26.11;99715.63;218985;1257;141331;-71
2023/06/01 08:41:37;;;;;;;5.50;2.30;;;;;;;30.92;25.90;99716.26;218759;1257;140500;-70
2023/06/01 08:46:42;;;;;;;2.50;1.90;;;;;;;30.68;26.06;99706.70;217685;1258;140114;-69
2023/06/01 08:51:53;;;;;;;2.30;2.10;;;;;;;30.51;26.14;99703.98;217750;1258;140030;-71
2023/06/01 08:56:57;;;;;;;5.80;1.70;;;;;;;30.20;25.96;99695.55;218161;1260;140467;-71
2023/06/01 09:02:00;;;;;;;2.00;1.90;;;;;;;30.14;26.35;99694.73;218193;1256;140362;-70
2023/06/01 09:07:04;;;;;;;3.10;2.80;;;;;;;30.01;25.97;99688.05;218536;1258;140159;-70
2023/06/01 09:12:32;;;;;;;3.00;2.50;;;;;;;29.70;26.15;99686.90;217817;1260;141252;-67
2023/06/01 09:17:37;;;;;;;4.40;2.60;;;;;;;29.77;26.47;99678.16;218263;1257;140317;-68
2023/06/01 09:22:42;;;;;;;7.40;2.40;;;;;;;29.52;25.95;99669.30;217978;1260;139806;-68
2023/06/01 09:27:51;;;;;;;1.60;1.50;;;;;;;29.46;26.20;99668.86;217847;1257;141422;-66
2023/06/01 09:33:16;;;;;;;2.10;1.90;;;;;;;29.59;26.28;99664.66;218294;1260;139217;-68
2023/06/01 09:38:25;;;;;;;2.90;1.90;;;;;;;29.60;26.19;99659.58;218156;1258;139396;-68
2023/06/01 09:43:30;;;;;;;2.20;1.50;;;;;;;29.71;26.40;99663.77;217738;1258;139498;-67
2023/06/01 09:58:59;;;;;;;2.20;1.70;;;;;;;29.22;26.43;99642.39;215551;1294;687145;-73
2023/06/01 10:04:05;;;;;;;3.70;1.70;;;;;;;29.16;26.77;99647.14;216266;1275;138108;-68
2023/06/01 10:09:15;;;;;;;3.40;1.80;;;;;;;29.04;26.75;99637.48;216012;1275;345653;-71
2023/06/01 10:14:24;;;;;;;1.50;1.40;;;;;;;29.16;26.62;99628.63;216631;1272;139687;-70
2023/06/01 10:19:26;;;;;;;2.10;2.00;;;;;;;29.31;26.62;99626.19;216226;1270;138641;-69
2023/06/01 10:24:30;;;;;;;4.70;2.20;;;;;;;29.45;26.88;99624.04;216385;1267;137760;-72
2023/06/01 10:29:34;;;;;;;7.30;2.20;;;;;;;29.60;26.94;99622.62;217844;1272;138820;-72
2023/06/01 10:34:38;;;;;;;7.60;1.60;;;;;;;29.74;26.75;99615.40;218319;1268;154212;-69
2023/06/01 10:39:42;;;;;;;5.10;2.30;;;;;;;29.85;26.48;99614.88;217225;1272;139182;-68
2023/06/01 10:44:47;;;;;;;1.20;1.00;;;;;;;29.90;26.35;99611.05;219269;1260;139290;-71
2023/06/01 10:49:50;;;;;;;4.70;2.10;;;;;;;29.94;26.20;99613.09;217998;1263;138957;-70
2023/06/01 10:55:07;;;;;;;3.00;1.80;;;;;;;29.87;26.32;99607.94;219703;1263;139238;-70
2023/06/01 11:00:14;;;;;;;1.70;1.60;;;;;;;29.70;26.42;99601.52;218053;1263;138752;-71
2023/06/01 11:05:56;;;;;;;4.30;1.60;;;;;;;29.54;26.50;99589.70;217577;1263;139386;-71
2023/06/01 11:11:02;;;;;;;2.50;2.30;;;;;;;29.60;26.88;99580.78;219965;1261;138266;-73
2023/06/01 11:16:07;;;;;;;3.20;2.10;;;;;;;29.47;26.11;99575.75;217226;1261;140387;-71
2023/06/01 11:21:24;;;;;;;2.00;1.60;;;;;;;29.39;26.27;99567.34;217435;1259;138976;-69
2023/06/01 11:26:48;;;;;;;7.40;2.30;;;;;;;29.30;26.63;99572.43;218511;1265;138810;-67
2023/06/01 11:31:57;;;;;;;3.60;2.60;;;;;;;29.22;26.16;99568.81;217001;1261;139802;-68
2023/06/01 11:37:01;;;;;;;1.70;1.60;;;;;;;28.99;26.28;99558.35;217319;1266;138651;-72
2023/06/01 11:42:07;;;;;;;4.20;1.90;;;;;;;29.04;26.87;99552.02;218016;1261;138700;-72
2023/06/01 11:47:11;;;;;;;5.40;2.20;;;;;;;29.11;26.42;99549.41;217428;1266;139205;-70
2023/06/01 11:52:19;;;;;;;3.90;2.00;;;;;;;29.13;26.43;99548.58;217332;1263;138337;-72
2023/06/01 11:57:22;;;;;;;2.30;2.10;;;;;;;28.91;26.70;99542.81;217760;1263;138609;-72
2023/06/01 12:02:29;;;;;;;2.20;1.90;;;;;;;28.76;26.67;99540.20;218214;1257;138618;-71
2023/06/01 12:07:45;;;;;;;2.80;1.90;;;;;;;28.80;26.48;99526.97;217802;1256;138135;-74
2023/06/01 12:12:49;;;;;;;4.30;1.80;;;;;;;28.83;27.13;99523.68;217784;1261;139511;-73
2023/06/01 12:17:55;;;;;;;5.00;2.30;;;;;;;28.84;27.23;99515.41;217770;1260;138503;-74
2023/06/01 12:23:19;;;;;;;3.30;2.20;;;;;;;28.94;26.87;99512.23;217640;1260;138852;-73
2023/06/01 12:28:29;;;;;;;5.90;2.80;;;;;;;29.01;27.03;99507.27;217784;1258;138572;-72
2023/06/01 12:33:34;;;;;;;3.30;2.30;;;;;;;29.04;26.53;99502.85;218194;1256;141470;-73
2023/06/01 12:38:53;;;;;;;3.60;2.20;;;;;;;28.94;26.60;99504.00;218597;1257;150228;-73
2023/06/01 12:44:00;;;;;;;3.00;2.60;;;;;;;28.89;26.53;99507.50;217807;1260;141677;-74
2023/06/01 12:49:18;;;;;;;2.40;2.10;;;;;;;28.74;26.60;99500.60;218367;1257;139964;-73
2023/06/01 12:54:23;;;;;;;2.80;2.50;;;;;;;28.49;26.44;99498.45;219256;1257;139140;-74
2023/06/01 12:59:27;;;;;;;4.50;3.00;;;;;;;28.55;26.79;99487.60;217887;1257;140039;-73
2023/06/01 13:04:32;;;;;;;;;;;;;;;28.53;26.49;99485.58;217748;1260;138787;-72
2023/06/01 13:09:37;;;;;;;3.20;2.80;;;;;;;28.52;26.79;99483.52;218439;1260;124644;-77
2023/06/01 13:14:42;;;;;;;5.80;3.00;;;;;;;28.57;26.76;99481.05;218074;1258;140470;-75
2023/06/01 13:19:48;;;;;;;3.70;3.00;;;;;;;28.53;26.73;99472.66;217997;1260;139155;-74
2023/06/01 13:24:53;;;;;;;8.10;2.90;;;;;;;28.54;26.59;99467.90;218169;1256;138924;-73
2023/06/01 13:30:08;;;;;;;2.90;2.60;;;;;;;28.44;26.28;99465.74;217925;1259;139170;-75
2023/06/01 13:35:13;;;;;;;4.30;2.50;;;;;;;28.36;26.74;99464.49;217629;1256;139008;-72
2023/06/01 13:40:22;;;;;;;2.30;2.20;;;;;;;28.34;26.82;99460.77;217889;1257;138995;-73
2023/06/01 13:45:27;;;;;;;2.80;2.30;;;;;;;28.39;26.98;99456.80;218472;1256;139774;-73
2023/06/01 13:50:32;;;;;;;3.40;3.10;;;;;;;28.28;26.27;99457.02;217903;1260;138854;-73
2023/06/01 13:55:38;;;;;;;3.40;2.40;;;;;;;28.14;26.36;99451.52;218037;1257;138916;-73
2023/06/01 14:00:44;;;;;;;6.20;2.90;;;;;;;28.06;25.97;99447.92;218025;1260;139241;-73
2023/06/01 14:05:48;;;;;;;4.30;2.80;;;;;;;27.89;26.00;99446.43;218640;1257;138995;-73
2023/06/01 14:11:01;;;;;;;7.20;2.80;;;;;;;27.84;25.99;99445.16;218033;1258;138871;-73
2023/06/01 14:16:09;;;;;;;20.90;8.30;;;;;;;27.77;25.89;99436.48;217877;1257;138915;-74
2023/06/01 14:21:14;;;;;;;2.90;2.20;;;;;;;27.65;26.23;99431.27;217968;1260;140901;-72
2023/06/01 14:26:17;;;;;;;3.10;2.80;;;;;;;27.71;26.11;99426.95;218309;1256;140216;-73
2023/06/01 14:31:21;;;;;;;3.50;3.20;;;;;;;27.72;26.01;99425.16;218703;1256;138629;-71
2023/06/01 14:36:25;;;;;;;4.00;3.00;;;;;;;27.67;26.06;99420.83;218291;1256;139688;-72
2023/06/01 14:41:44;;;;;;;5.60;3.10;;;;;;;27.60;25.86;99414.70;219628;1256;139033;-72
2023/06/01 14:46:56;;;;;;;2.80;2.50;;;;;;;27.52;25.45;99410.91;218664;1256;138742;-72
2023/06/01 14:52:03;;;;;;;6.70;3.50;;;;;;;27.46;25.39;99409.44;218491;1260;138487;-73
2023/06/01 14:57:07;;;;;;;4.50;2.90;;;;;;;27.43;25.37;99405.48;218946;1256;138473;-73
2023/06/01 15:02:12;;;;;;;4.20;3.10;;;;;;;27.42;25.43;99403.63;218395;1256;139584;-74
2023/06/01 15:07:17;;;;;;;4.20;2.70;;;;;;;27.35;25.66;99401.56;217952;1260;140298;-74
2023/06/01 15:12:21;;;;;;;6.00;3.50;;;;;;;27.24;26.15;99396.25;217970;1257;138438;-73
2023/06/01 15:17:25;;;;;;;6.40;2.90;;;;;;;27.09;26.35;99392.52;218225;1256;138456;-73
2023/06/01 15:22:29;;;;;;;3.40;2.40;;;;;;;26.99;26.56;99391.22;218646;1256;138057;-76
2023/06/01 15:27:33;;;;;;;7.60;2.90;;;;;;;26.82;26.71;99386.94;218334;1257;138525;-75
2023/06/01 15:32:37;;;;;;;7.60;3.60;;;;;;;26.60;27.16;99386.75;218055;1256;139598;-74
2023/06/01 15:37:41;;;;;;;3.10;2.60;;;;;;;26.38;27.77;99387.08;217768;1260;139151;-73
2023/06/01 15:42:43;;;;;;;4.20;2.90;;;;;;;26.29;28.16;99381.27;218038;1256;139472;-73
2023/06/01 15:47:46;;;;;;;3.30;2.00;;;;;;;26.23;28.40;99381.33;217882;1260;139084;-77
2023/06/01 15:52:50;;;;;;;5.20;1.90;;;;;;;26.26;29.07;99378.38;218720;1254;139580;-77
2023/06/01 15:57:57;;;;;;;3.70;2.70;;;;;;;26.19;29.30;99373.48;218173;1256;139813;-69
2023/06/01 16:03:01;;;;;;;6.00;2.30;;;;;;;26.13;29.57;99363.19;218355;1256;138983;-67
2023/06/01 16:08:04;;;;;;;4.60;2.50;;;;;;;26.10;29.70;99363.95;217917;1257;138760;-66
2023/06/01 16:13:06;;;;;;;2.40;2.10;;;;;;;25.99;29.84;99361.20;218377;1256;209378;-67
2023/06/01 16:18:09;;;;;;;2.90;2.50;;;;;;;25.97;30.11;99355.23;219778;1256;139255;-71
2023/06/01 16:23:13;;;;;;;3.90;2.40;;;;;;;25.89;30.40;99358.64;218325;1259;140355;-72
2023/06/01 16:28:17;;;;;;;5.60;2.60;;;;;;;25.62;31.08;99356.51;219076;1256;137974;-73
2023/06/01 16:33:20;;;;;;;5.90;2.60;;;;;;;25.54;31.92;99356.32;219064;1256;139140;-72
2023/06/01 16:38:24;;;;;;;6.50;2.50;;;;;;;25.46;32.45;99352.63;220237;1254;139047;-67
2023/06/01 16:43:27;;;;;;;6.20;2.70;;;;;;;25.54;32.76;99350.25;219969;1256;138787;-69
2023/06/01 16:48:31;;;;;;;4.40;2.90;;;;;;;25.61;33.02;99343.68;219087;1257;138013;-73
2023/06/01 16:53:35;;;;;;;4.10;2.30;;;;;;;25.55;33.08;99348.40;218748;1257;138729;-70
2023/06/01 16:58:38;;;;;;;3.40;2.80;;;;;;;25.25;33.29;99347.70;217953;1259;139627;-74
2023/06/01 17:03:41;;;;;;;3.50;2.60;;;;;;;25.00;33.71;99343.15;218877;1259;140046;-71
2023/06/01 17:08:45;;;;;;;4.70;2.50;;;;;;;24.96;34.08;99340.20;218130;1257;138480;-79
2023/06/01 17:13:48;;;;;;;9.80;3.20;;;;;;;24.85;34.09;99342.26;218154;1256;139051;-80
2023/06/01 17:18:51;;;;;;;3.90;2.80;;;;;;;24.70;34.25;99347.41;218135;1259;138704;-79
2023/06/01 17:23:55;;;;;;;3.20;2.80;;;;;;;24.48;34.03;99345.98;218277;1256;141095;-74
2023/06/01 17:28:59;;;;;;;6.30;2.90;;;;;;;24.27;34.42;99348.15;218299;1256;138927;-72
2023/06/01 17:34:02;;;;;;;6.20;2.90;;;;;;;24.05;34.56;99349.85;218406;1258;138687;-74
2023/06/01 17:39:06;;;;;;;4.20;3.00;;;;;;;23.90;34.96;99352.79;217939;1256;139495;-74
2023/06/01 17:44:11;;;;;;;3.60;3.20;;;;;;;23.74;35.10;99358.34;218119;1259;138326;-74
2023/06/01 17:49:14;;;;;;;8.30;3.20;;;;;;;23.54;35.22;99361.38;217745;1256;138604;-72
2023/06/01 17:54:18;;;;;;;11.40;3.60;;;;;;;23.34;35.42;99360.61;218417;1256;139730;-75
2023/06/01 17:59:24;;;;;;;3.00;2.80;;;;;;;23.13;35.38;99360.71;217943;1257;138637;-70
2023/06/01 18:04:28;;;;;;;10.30;3.00;;;;;;;22.94;35.33;99359.58;218588;1256;139137;-68
2023/06/01 18:09:32;;;;;;;3.60;3.20;;;;;;;22.71;35.42;99361.35;218439;1257;139685;-74
2023/06/01 18:14:36;;;;;;;9.40;3.80;;;;;;;22.50;35.86;99361.88;218380;1256;139614;-72
2023/06/01 18:19:41;;;;;;;5.40;3.30;;;;;;;22.32;36.11;99366.27;218169;1257;138838;-69
2023/06/01 18:24:46;;;;;;;6.40;4.10;;;;;;;22.13;36.55;99366.29;218319;1257;139256;-68
2023/06/01 18:29:50;;;;;;;7.30;3.10;;;;;;;21.92;36.88;99370.67;218956;1256;138564;-68
2023/06/01 18:34:53;;;;;;;3.90;3.60;;;;;;;21.69;37.28;99370.92;219318;1254;139256;-71
2023/06/01 18:39:57;;;;;;;5.10;4.10;;;;;;;21.50;37.58;99379.79;218861;1256;139608;-69
2023/06/01 18:45:00;;;;;;;4.00;3.40;;;;;;;21.29;37.66;99386.45;217937;1256;139025;-68
2023/06/01 18:50:04;;;;;;;3.10;2.80;;;;;;;21.09;37.99;99390.20;219104;1254;140016;-67
2023/06/01 18:55:12;;;;;;;5.60;3.80;;;;;;;20.90;38.21;99392.67;219152;1256;138189;-73
2023/06/01 19:00:21;;;;;;;5.50;4.00;;;;;;;20.73;38.43;99391.88;218237;1257;138575;-75
2023/06/01 19:05:24;;;;;;;9.80;4.20;;;;;;;20.56;38.72;99395.63;218436;1256;141257;-71
2023/06/01 19:10:44;;;;;;;6.20;4.00;;;;;;;20.38;38.82;99404.22;217902;1256;139459;-68
2023/06/01 19:15:49;;;;;;;3.70;3.40;;;;;;;20.19;39.13;99411.52;218609;1254;138958;-74
2023/06/01 19:21:10;;;;;;;6.50;3.70;;;;;;;19.99;39.53;99415.88;218120;1257;138628;-75
2023/06/01 19:26:20;;;;;;;6.90;3.70;;;;;;;19.79;39.91;99415.92;218516;1256;140277;-78
2023/06/01 19:31:33;;;;;;;6.80;3.80;;;;;;;19.61;40.17;99418.62;218130;1254;138884;-80
2023/06/01 19:36:43;;;;;;;15.10;4.90;;;;;;;19.47;40.82;99424.58;218383;1255;139243;-79
2023/06/01 19:41:47;;;;;;;8.10;4.60;;;;;;;19.30;41.08;99427.92;218011;1256;139234;-77
2023/06/01 19:46:51;;;;;;;7.30;4.90;;;;;;;19.14;41.50;99428.43;218514;1256;138950;-77
2023/06/01 19:51:58;;;;;;;5.90;4.00;;;;;;;18.98;42.27;99431.20;218243;1254;139089;-73
2023/06/01 19:57:04;;;;;;;16.10;4.40;;;;;;;18.78;42.44;99430.04;218357;1259;139392;-76
2023/06/01 20:02:35;;;;;;;8.00;4.70;;;;;;;18.56;43.08;99429.04;218484;1256;139179;-73
2023/06/01 20:07:38;;;;;;;4.70;4.10;;;;;;;18.32;43.73;99433.61;219072;1256;140187;-72
2023/06/01 20:12:43;;;;;;;10.50;4.60;;;;;;;18.04;44.12;99443.52;218481;1254;151288;-73
2023/06/01 20:17:50;;;;;;;11.00;4.60;;;;;;;17.84;44.54;99446.48;219156;1258;139111;-73
2023/06/01 20:22:54;;;;;;;7.30;4.70;;;;;;;17.73;45.03;99445.25;218528;1258;140179;-72
2023/06/01 20:28:06;;;;;;;9.50;4.80;;;;;;;17.64;45.26;99446.34;218875;1254;138881;-73
2023/06/01 20:33:19;;;;;;;7.30;4.10;;;;;;;17.53;45.71;99451.77;218362;1254;139041;-75
2023/06/01 20:38:27;;;;;;;11.10;4.10;;;;;;;17.45;46.17;99457.31;218382;1256;138863;-77
2023/06/01 20:43:36;;;;;;;9.10;4.20;;;;;;;17.35;46.62;99460.88;218389;1256;138921;-76
2023/06/01 20:48:54;;;;;;;7.40;4.30;;;;;;;17.26;47.06;99462.37;218288;1257;138761;-79
2023/06/01 20:54:14;;;;;;;4.60;3.30;;;;;;;17.14;47.53;99466.46;218324;1258;140146;-77
2023/06/01 20:59:29;;;;;;;8.60;3.50;;;;;;;17.03;47.75;99478.64;218437;1257;140238;-78
2023/06/01 21:04:35;;;;;;;6.40;4.00;;;;;;;16.95;47.99;99475.27;218160;1256;138717;-75
2023/06/01 21:09:40;;;;;;;5.20;3.70;;;;;;;16.85;48.30;99480.35;218428;1257;139184;-74
2023/06/01 21:14:46;;;;;;;6.40;3.50;;;;;;;16.72;48.62;99482.89;218531;1256;140670;-71
2023/06/01 21:19:50;;;;;;;4.60;3.40;;;;;;;16.60;49.10;99483.21;218695;1254;139677;-72
2023/06/01 21:24:58;;;;;;;11.80;4.60;;;;;;;16.48;49.32;99482.27;218269;1257;139555;-73
2023/06/01 21:30:02;;;;;;;11.30;4.90;;;;;;;16.34;49.66;99483.77;218305;1254;139388;-81
2023/06/01 21:35:06;;;;;;;8.60;4.30;;;;;;;16.21;50.06;99487.71;218267;1255;139241;-78
2023/06/01 21:40:10;;;;;;;4.20;3.60;;;;;;;16.10;50.46;99486.00;218388;1257;140673;-73
2023/06/01 21:45:16;;;;;;;9.10;4.00;;;;;;;15.98;50.84;99490.56;218648;1256;141671;-72
2023/06/01 21:50:21;;;;;;;;;;;;;;;15.82;51.12;99490.32;218045;1259;139779;-74
2023/06/01 21:55:27;;;;;;;4.70;3.10;;;;;;;15.62;51.53;99498.33;218925;1256;125314;-78
2023/06/01 22:00:32;;;;;;;7.80;4.10;;;;;;;15.48;51.90;99497.92;219059;1257;139581;-85
2023/06/01 22:05:37;;;;;;;6.80;3.80;;;;;;;15.37;52.29;99496.32;218759;1257;140114;-76
2023/06/01 22:10:40;;;;;;;10.70;5.10;;;;;;;15.24;52.57;99496.67;217715;1257;588493;-81
2023/06/01 22:15:44;;;;;;;7.10;3.90;;;;;;;15.11;52.82;99498.99;219831;1256;139735;-82
2023/06/01 22:20:47;;;;;;;5.50;4.00;;;;;;;15.00;53.21;99502.01;219395;1256;139280;-82
2023/06/01 22:25:50;;;;;;;10.30;5.00;;;;;;;14.88;53.47;99505.29;218425;1259;138837;-76
2023/06/01 22:30:53;;;;;;;7.40;4.90;;;;;;;14.76;53.86;99506.61;218582;1257;139811;-80
2023/06/01 22:35:56;;;;;;;7.80;5.00;;;;;;;14.67;54.18;99510.33;218040;1254;139285;-75
2023/06/01 22:40:59;;;;;;;6.60;3.40;;;;;;;14.58;54.45;99511.77;218059;1259;139975;-74
2023/06/01 22:46:03;;;;;;;11.80;4.00;;;;;;;14.45;54.74;99510.12;218490;1256;140310;-72
2023/06/01 22:51:06;;;;;;;6.20;3.90;;;;;;;14.32;55.16;99511.52;218587;1259;139782;-71
2023/06/01 22:56:10;;;;;;;6.00;3.60;;;;;;;14.19;55.54;99509.39;218020;1257;140353;-71
2023/06/01 23:01:12;;;;;;;5.10;3.80;;;;;;;14.06;55.58;99512.40;218257;1256;139082;-70
2023/06/01 23:06:15;;;;;;;12.50;3.90;;;;;;;13.98;56.02;99515.91;218564;1255;139013;-69
2023/06/01 23:11:27;;;;;;;8.20;4.50;;;;;;;13.92;56.35;99516.42;219070;1255;139058;-70
2023/06/01 23:16:32;;;;;;;7.30;3.60;;;;;;;13.82;56.63;99516.37;218054;1256;139927;-69
2023/06/01 23:21:37;;;;;;;9.70;4.70;;;;;;;13.73;56.79;99516.71;218249;1257;139962;-77
2023/06/01 23:26:39;;;;;;;6.70;3.90;;;;;;;13.61;57.14;99525.17;218082;1255;139491;-80
2023/06/01 23:31:43;;;;;;;4.40;3.90;;;;;;;13.49;57.34;99527.77;217648;1259;247753;-78
2023/06/01 23:36:52;;;;;;;7.70;4.10;;;;;;;13.40;57.71;99531.21;218601;1257;139500;-71
2023/06/01 23:41:55;;;;;;;5.10;4.10;;;;;;;13.32;57.86;99536.77;218607;1256;139239;-78